Racine, Minnesota
Current Conditions -  °F | °C
As of 11:54 PM on Saturday 25 Oct 2014 (Local Time) from KRST Reporting Station
Clear Clear  
Wind Chill: 37°   Ceiling: Unl
Heat Index: 42°   Visibility: 10mi
Dew Point: 28°   Wind: 8mph
Humidity: 58%   Direction: 320°NW
Pressure: 30.06"   Gusts: NA
Location:  43.78°N, 92.48°W
Report Text: KRST 260454Z AUTO 32007KT 10SM CLR 06/M02 A3006 RMK AO2 SLP182 T00561022
Loading
Personal Weather Stations






























Interactive Weather Map
Tropical Storm Tracking
New forecast layout! Learn more

10-Day Weather Forecast

Advertisements
Track Severe Weather on mobile